sensor_id;sensor_type;location;lat;lon;timestamp;P1;durP1;ratioP1;P2;durP2;ratioP2
13743;SDS011;6943;52.368;9.966;2023-05-07T00:01:54;27.70;;;19.70;;
13743;SDS011;6943;52.368;9.966;2023-05-07T00:04:20;24.10;;;19.37;;
13743;SDS011;6943;52.368;9.966;2023-05-07T00:06:46;26.70;;;20.10;;
13743;SDS011;6943;52.368;9.966;2023-05-07T00:09:12;25.20;;;19.07;;
13743;SDS011;6943;52.368;9.966;2023-05-07T00:11:38;24.13;;;19.77;;
13743;SDS011;6943;52.368;9.966;2023-05-07T00:14:04;26.57;;;20.23;;
13743;SDS011;6943;52.368;9.966;2023-05-07T00:16:30;27.53;;;20.60;;
13743;SDS011;6943;52.368;9.966;2023-05-07T00:18:56;28.37;;;21.93;;
13743;SDS011;6943;52.368;9.966;2023-05-07T00:21:22;29.93;;;21.07;;
13743;SDS011;6943;52.368;9.966;2023-05-07T00:23:51;28.10;;;21.17;;
13743;SDS011;6943;52.368;9.966;2023-05-07T00:26:17;27.40;;;20.53;;
13743;SDS011;6943;52.368;9.966;2023-05-07T00:28:43;27.63;;;20.90;;
13743;SDS011;6943;52.368;9.966;2023-05-07T00:31:09;26.37;;;20.63;;
13743;SDS011;6943;52.368;9.966;2023-05-07T00:33:35;29.70;;;22.30;;
13743;SDS011;6943;52.368;9.966;2023-05-07T00:36:01;29.17;;;22.13;;
13743;SDS011;6943;52.368;9.966;2023-05-07T00:38:27;34.20;;;23.33;;
13743;SDS011;6943;52.368;9.966;2023-05-07T00:40:52;36.97;;;24.43;;
13743;SDS011;6943;52.368;9.966;2023-05-07T00:43:18;30.17;;;21.50;;
13743;SDS011;6943;52.368;9.966;2023-05-07T00:45:44;31.87;;;23.40;;
13743;SDS011;6943;52.368;9.966;2023-05-07T00:48:11;32.50;;;24.73;;
13743;SDS011;6943;52.368;9.966;2023-05-07T00:50:37;33.87;;;25.10;;
13743;SDS011;6943;52.368;9.966;2023-05-07T00:53:03;33.07;;;24.80;;
13743;SDS011;6943;52.368;9.966;2023-05-07T00:55:29;32.70;;;23.93;;
13743;SDS011;6943;52.368;9.966;2023-05-07T00:57:55;33.07;;;24.97;;
13743;SDS011;6943;52.368;9.966;2023-05-07T01:00:21;33.73;;;25.50;;
13743;SDS011;6943;52.368;9.966;2023-05-07T01:02:49;35.00;;;25.80;;
13743;SDS011;6943;52.368;9.966;2023-05-07T01:05:15;36.97;;;25.67;;
13743;SDS011;6943;52.368;9.966;2023-05-07T01:07:42;34.73;;;25.50;;
13743;SDS011;6943;52.368;9.966;2023-05-07T01:10:09;33.97;;;25.47;;
13743;SDS011;6943;52.368;9.966;2023-05-07T01:12:36;32.00;;;23.50;;
13743;SDS011;6943;52.368;9.966;2023-05-07T01:15:03;34.00;;;24.83;;
13743;SDS011;6943;52.368;9.966;2023-05-07T01:17:29;33.73;;;24.33;;
13743;SDS011;6943;52.368;9.966;2023-05-07T01:19:58;34.07;;;25.40;;
13743;SDS011;6943;52.368;9.966;2023-05-07T01:22:31;34.90;;;24.27;;
13743;SDS011;6943;52.368;9.966;2023-05-07T01:24:58;33.20;;;24.23;;
13743;SDS011;6943;52.368;9.966;2023-05-07T01:27:24;35.10;;;24.07;;
13743;SDS011;6943;52.368;9.966;2023-05-07T01:29:51;33.67;;;24.47;;
13743;SDS011;6943;52.368;9.966;2023-05-07T01:32:17;33.83;;;24.90;;
13743;SDS011;6943;52.368;9.966;2023-05-07T01:34:44;30.23;;;22.43;;
13743;SDS011;6943;52.368;9.966;2023-05-07T01:37:11;28.83;;;21.77;;
13743;SDS011;6943;52.368;9.966;2023-05-07T01:39:38;30.13;;;21.73;;
13743;SDS011;6943;52.368;9.966;2023-05-07T01:42:05;29.23;;;21.20;;
13743;SDS011;6943;52.368;9.966;2023-05-07T01:44:31;26.00;;;18.90;;
13743;SDS011;6943;52.368;9.966;2023-05-07T01:46:57;25.63;;;19.10;;
13743;SDS011;6943;52.368;9.966;2023-05-07T01:49:24;24.83;;;18.80;;
13743;SDS011;6943;52.368;9.966;2023-05-07T01:51:51;21.43;;;16.80;;
13743;SDS011;6943;52.368;9.966;2023-05-07T01:54:16;19.53;;;15.67;;
13743;SDS011;6943;52.368;9.966;2023-05-07T01:56:42;20.27;;;15.80;;
13743;SDS011;6943;52.368;9.966;2023-05-07T01:59:08;22.07;;;15.53;;
13743;SDS011;6943;52.368;9.966;2023-05-07T02:01:34;19.63;;;13.40;;
13743;SDS011;6943;52.368;9.966;2023-05-07T02:04:00;17.10;;;12.73;;
13743;SDS011;6943;52.368;9.966;2023-05-07T02:06:26;16.70;;;13.90;;
13743;SDS011;6943;52.368;9.966;2023-05-07T02:08:52;15.50;;;13.07;;
13743;SDS011;6943;52.368;9.966;2023-05-07T02:11:18;15.93;;;13.10;;
13743;SDS011;6943;52.368;9.966;2023-05-07T02:13:44;16.57;;;12.90;;
13743;SDS011;6943;52.368;9.966;2023-05-07T02:16:10;17.93;;;12.10;;
13743;SDS011;6943;52.368;9.966;2023-05-07T02:18:38;13.77;;;11.27;;
13743;SDS011;6943;52.368;9.966;2023-05-07T02:21:04;14.70;;;11.43;;
13743;SDS011;6943;52.368;9.966;2023-05-07T02:23:30;13.07;;;10.33;;
13743;SDS011;6943;52.368;9.966;2023-05-07T02:25:56;14.47;;;11.90;;
13743;SDS011;6943;52.368;9.966;2023-05-07T02:28:22;16.50;;;11.63;;
13743;SDS011;6943;52.368;9.966;2023-05-07T02:30:48;14.63;;;11.50;;
13743;SDS011;6943;52.368;9.966;2023-05-07T02:33:14;18.17;;;14.00;;
13743;SDS011;6943;52.368;9.966;2023-05-07T02:35:40;16.90;;;13.90;;
13743;SDS011;6943;52.368;9.966;2023-05-07T02:38:06;16.70;;;13.53;;
13743;SDS011;6943;52.368;9.966;2023-05-07T02:40:32;15.53;;;12.50;;
13743;SDS011;6943;52.368;9.966;2023-05-07T02:42:58;16.20;;;13.07;;
13743;SDS011;6943;52.368;9.966;2023-05-07T02:45:24;15.27;;;12.00;;
13743;SDS011;6943;52.368;9.966;2023-05-07T02:47:50;14.20;;;11.17;;
13743;SDS011;6943;52.368;9.966;2023-05-07T02:50:16;15.40;;;12.70;;
13743;SDS011;6943;52.368;9.966;2023-05-07T02:52:42;16.27;;;11.90;;
13743;SDS011;6943;52.368;9.966;2023-05-07T02:55:08;15.37;;;11.73;;
13743;SDS011;6943;52.368;9.966;2023-05-07T02:57:34;14.73;;;12.03;;
13743;SDS011;6943;52.368;9.966;2023-05-07T03:00:06;15.30;;;12.90;;
13743;SDS011;6943;52.368;9.966;2023-05-07T03:02:35;16.27;;;12.73;;
13743;SDS011;6943;52.368;9.966;2023-05-07T03:05:01;17.50;;;13.40;;
13743;SDS011;6943;52.368;9.966;2023-05-07T03:07:28;18.47;;;14.13;;
13743;SDS011;6943;52.368;9.966;2023-05-07T03:09:54;18.00;;;15.40;;
13743;SDS011;6943;52.368;9.966;2023-05-07T03:12:20;19.20;;;15.47;;
13743;SDS011;6943;52.368;9.966;2023-05-07T03:14:46;16.53;;;12.20;;
13743;SDS011;6943;52.368;9.966;2023-05-07T03:17:12;16.87;;;13.00;;
13743;SDS011;6943;52.368;9.966;2023-05-07T03:19:38;18.00;;;12.63;;
13743;SDS011;6943;52.368;9.966;2023-05-07T03:22:04;18.03;;;14.13;;
13743;SDS011;6943;52.368;9.966;2023-05-07T03:24:30;16.43;;;13.13;;
13743;SDS011;6943;52.368;9.966;2023-05-07T03:26:56;15.83;;;12.20;;
13743;SDS011;6943;52.368;9.966;2023-05-07T03:29:22;17.23;;;12.80;;
13743;SDS011;6943;52.368;9.966;2023-05-07T03:31:48;17.17;;;12.73;;
13743;SDS011;6943;52.368;9.966;2023-05-07T03:34:14;15.53;;;12.30;;
13743;SDS011;6943;52.368;9.966;2023-05-07T03:36:41;13.23;;;10.37;;
13743;SDS011;6943;52.368;9.966;2023-05-07T03:39:07;16.40;;;11.20;;
13743;SDS011;6943;52.368;9.966;2023-05-07T03:41:33;13.03;;;10.37;;
13743;SDS011;6943;52.368;9.966;2023-05-07T03:44:00;14.63;;;10.97;;
13743;SDS011;6943;52.368;9.966;2023-05-07T03:46:26;12.97;;;10.07;;
13743;SDS011;6943;52.368;9.966;2023-05-07T03:48:53;13.67;;;10.90;;
13743;SDS011;6943;52.368;9.966;2023-05-07T03:51:19;13.30;;;11.20;;
13743;SDS011;6943;52.368;9.966;2023-05-07T03:53:45;15.87;;;11.47;;
13743;SDS011;6943;52.368;9.966;2023-05-07T03:56:11;13.07;;;10.90;;
13743;SDS011;6943;52.368;9.966;2023-05-07T03:58:36;11.37;;;10.20;;
13743;SDS011;6943;52.368;9.966;2023-05-07T04:01:03;10.77;;;9.10;;
13743;SDS011;6943;52.368;9.966;2023-05-07T04:03:29;13.77;;;10.53;;
13743;SDS011;6943;52.368;9.966;2023-05-07T04:05:55;12.90;;;10.77;;
13743;SDS011;6943;52.368;9.966;2023-05-07T04:08:21;14.47;;;11.27;;
13743;SDS011;6943;52.368;9.966;2023-05-07T04:10:46;13.60;;;11.43;;
13743;SDS011;6943;52.368;9.966;2023-05-07T04:13:12;13.47;;;10.93;;
13743;SDS011;6943;52.368;9.966;2023-05-07T04:15:38;15.63;;;12.33;;
13743;SDS011;6943;52.368;9.966;2023-05-07T04:18:04;15.30;;;12.00;;
13743;SDS011;6943;52.368;9.966;2023-05-07T04:20:30;15.33;;;12.10;;
13743;SDS011;6943;52.368;9.966;2023-05-07T04:23:01;15.27;;;11.67;;
13743;SDS011;6943;52.368;9.966;2023-05-07T04:25:27;15.50;;;12.47;;
13743;SDS011;6943;52.368;9.966;2023-05-07T04:27:53;14.37;;;11.97;;
13743;SDS011;6943;52.368;9.966;2023-05-07T04:30:19;14.70;;;12.57;;
13743;SDS011;6943;52.368;9.966;2023-05-07T04:32:45;14.73;;;12.73;;
13743;SDS011;6943;52.368;9.966;2023-05-07T04:35:11;15.27;;;12.67;;
13743;SDS011;6943;52.368;9.966;2023-05-07T04:37:37;16.23;;;12.97;;
13743;SDS011;6943;52.368;9.966;2023-05-07T04:40:03;15.23;;;12.40;;
13743;SDS011;6943;52.368;9.966;2023-05-07T04:42:29;15.13;;;12.67;;
13743;SDS011;6943;52.368;9.966;2023-05-07T04:44:56;15.30;;;12.60;;
13743;SDS011;6943;52.368;9.966;2023-05-07T04:47:22;16.13;;;13.33;;
13743;SDS011;6943;52.368;9.966;2023-05-07T04:49:47;15.70;;;12.43;;
13743;SDS011;6943;52.368;9.966;2023-05-07T04:52:13;15.83;;;12.70;;
13743;SDS011;6943;52.368;9.966;2023-05-07T04:54:40;15.80;;;11.90;;
13743;SDS011;6943;52.368;9.966;2023-05-07T04:57:06;13.67;;;10.73;;
13743;SDS011;6943;52.368;9.966;2023-05-07T04:59:32;12.90;;;10.33;;
13743;SDS011;6943;52.368;9.966;2023-05-07T05:01:58;10.93;;;9.50;;
13743;SDS011;6943;52.368;9.966;2023-05-07T05:04:24;12.83;;;10.50;;
13743;SDS011;6943;52.368;9.966;2023-05-07T05:06:50;12.77;;;10.37;;
13743;SDS011;6943;52.368;9.966;2023-05-07T05:09:16;11.67;;;9.80;;
13743;SDS011;6943;52.368;9.966;2023-05-07T05:11:42;12.07;;;9.87;;
13743;SDS011;6943;52.368;9.966;2023-05-07T05:14:08;11.43;;;10.10;;
13743;SDS011;6943;52.368;9.966;2023-05-07T05:16:34;10.03;;;8.93;;
13743;SDS011;6943;52.368;9.966;2023-05-07T05:19:01;11.57;;;9.67;;
13743;SDS011;6943;52.368;9.966;2023-05-07T05:21:27;12.07;;;10.73;;
13743;SDS011;6943;52.368;9.966;2023-05-07T05:23:53;11.03;;;8.73;;
13743;SDS011;6943;52.368;9.966;2023-05-07T05:26:19;9.70;;;8.70;;
13743;SDS011;6943;52.368;9.966;2023-05-07T05:28:46;10.17;;;8.80;;
13743;SDS011;6943;52.368;9.966;2023-05-07T05:31:12;11.43;;;10.23;;
13743;SDS011;6943;52.368;9.966;2023-05-07T05:33:39;11.87;;;9.43;;
13743;SDS011;6943;52.368;9.966;2023-05-07T05:36:05;9.20;;;8.30;;
13743;SDS011;6943;52.368;9.966;2023-05-07T05:38:31;10.07;;;8.37;;
13743;SDS011;6943;52.368;9.966;2023-05-07T05:40:57;10.30;;;8.80;;
13743;SDS011;6943;52.368;9.966;2023-05-07T05:43:23;9.47;;;8.33;;
13743;SDS011;6943;52.368;9.966;2023-05-07T05:45:49;10.13;;;8.87;;
13743;SDS011;6943;52.368;9.966;2023-05-07T05:48:15;9.10;;;8.20;;
13743;SDS011;6943;52.368;9.966;2023-05-07T05:50:41;9.10;;;8.20;;
13743;SDS011;6943;52.368;9.966;2023-05-07T05:53:07;10.73;;;9.63;;
13743;SDS011;6943;52.368;9.966;2023-05-07T05:55:33;9.60;;;8.13;;
13743;SDS011;6943;52.368;9.966;2023-05-07T05:58:00;9.50;;;8.60;;
13743;SDS011;6943;52.368;9.966;2023-05-07T06:00:26;9.70;;;8.13;;
13743;SDS011;6943;52.368;9.966;2023-05-07T06:02:52;9.73;;;8.60;;
13743;SDS011;6943;52.368;9.966;2023-05-07T06:05:18;9.20;;;8.30;;
13743;SDS011;6943;52.368;9.966;2023-05-07T06:07:44;9.40;;;8.50;;
13743;SDS011;6943;52.368;9.966;2023-05-07T06:10:10;9.87;;;8.97;;
13743;SDS011;6943;52.368;9.966;2023-05-07T06:12:36;9.43;;;8.43;;
13743;SDS011;6943;52.368;9.966;2023-05-07T06:15:02;10.53;;;9.43;;
13743;SDS011;6943;52.368;9.966;2023-05-07T06:17:28;9.17;;;8.27;;
13743;SDS011;6943;52.368;9.966;2023-05-07T06:19:55;9.77;;;8.87;;
13743;SDS011;6943;52.368;9.966;2023-05-07T06:22:21;10.30;;;9.30;;
13743;SDS011;6943;52.368;9.966;2023-05-07T06:24:47;11.23;;;9.50;;
13743;SDS011;6943;52.368;9.966;2023-05-07T06:27:13;10.50;;;9.40;;
13743;SDS011;6943;52.368;9.966;2023-05-07T06:29:39;11.60;;;10.43;;
13743;SDS011;6943;52.368;9.966;2023-05-07T06:34:34;11.53;;;10.37;;
13743;SDS011;6943;52.368;9.966;2023-05-07T06:37:00;11.17;;;9.97;;
13743;SDS011;6943;52.368;9.966;2023-05-07T06:39:26;13.27;;;11.87;;
13743;SDS011;6943;52.368;9.966;2023-05-07T06:41:52;12.63;;;11.10;;
13743;SDS011;6943;52.368;9.966;2023-05-07T06:44:18;13.30;;;11.90;;
13743;SDS011;6943;52.368;9.966;2023-05-07T06:46:44;13.00;;;11.60;;
13743;SDS011;6943;52.368;9.966;2023-05-07T06:49:10;14.70;;;13.13;;
13743;SDS011;6943;52.368;9.966;2023-05-07T06:51:36;14.77;;;13.27;;
13743;SDS011;6943;52.368;9.966;2023-05-07T06:54:03;12.80;;;11.50;;
13743;SDS011;6943;52.368;9.966;2023-05-07T06:56:29;15.57;;;13.30;;
13743;SDS011;6943;52.368;9.966;2023-05-07T06:58:55;14.97;;;13.47;;
13743;SDS011;6943;52.368;9.966;2023-05-07T07:01:21;14.97;;;13.37;;
13743;SDS011;6943;52.368;9.966;2023-05-07T07:03:47;13.60;;;12.23;;
13743;SDS011;6943;52.368;9.966;2023-05-07T07:06:13;11.73;;;10.53;;
13743;SDS011;6943;52.368;9.966;2023-05-07T07:08:39;12.57;;;11.30;;
13743;SDS011;6943;52.368;9.966;2023-05-07T07:11:05;12.43;;;11.20;;
13743;SDS011;6943;52.368;9.966;2023-05-07T07:13:31;12.00;;;10.00;;
13743;SDS011;6943;52.368;9.966;2023-05-07T07:15:57;11.67;;;10.50;;
13743;SDS011;6943;52.368;9.966;2023-05-07T07:18:23;12.80;;;11.47;;
13743;SDS011;6943;52.368;9.966;2023-05-07T07:20:49;13.87;;;12.37;;
13743;SDS011;6943;52.368;9.966;2023-05-07T07:23:15;12.73;;;11.43;;
13743;SDS011;6943;52.368;9.966;2023-05-07T07:25:41;13.50;;;11.10;;
13743;SDS011;6943;52.368;9.966;2023-05-07T07:28:07;12.03;;;9.87;;
13743;SDS011;6943;52.368;9.966;2023-05-07T07:30:33;13.27;;;11.87;;
13743;SDS011;6943;52.368;9.966;2023-05-07T07:32:59;11.63;;;10.47;;
13743;SDS011;6943;52.368;9.966;2023-05-07T07:35:28;11.30;;;10.10;;
13743;SDS011;6943;52.368;9.966;2023-05-07T07:37:54;9.33;;;8.43;;
13743;SDS011;6943;52.368;9.966;2023-05-07T07:40:21;10.60;;;9.23;;
13743;SDS011;6943;52.368;9.966;2023-05-07T07:42:47;9.23;;;8.17;;
13743;SDS011;6943;52.368;9.966;2023-05-07T07:45:13;9.73;;;8.73;;
13743;SDS011;6943;52.368;9.966;2023-05-07T07:47:39;9.57;;;8.67;;
13743;SDS011;6943;52.368;9.966;2023-05-07T07:50:05;10.57;;;9.57;;
13743;SDS011;6943;52.368;9.966;2023-05-07T07:52:32;12.03;;;10.13;;
13743;SDS011;6943;52.368;9.966;2023-05-07T07:54:57;9.83;;;8.90;;
13743;SDS011;6943;52.368;9.966;2023-05-07T07:57:23;10.23;;;9.03;;
13743;SDS011;6943;52.368;9.966;2023-05-07T07:59:49;9.50;;;8.60;;
13743;SDS011;6943;52.368;9.966;2023-05-07T08:02:16;9.40;;;7.80;;
13743;SDS011;6943;52.368;9.966;2023-05-07T08:04:42;10.00;;;8.97;;
13743;SDS011;6943;52.368;9.966;2023-05-07T08:07:08;9.10;;;7.97;;
13743;SDS011;6943;52.368;9.966;2023-05-07T08:09:34;9.43;;;8.53;;
13743;SDS011;6943;52.368;9.966;2023-05-07T08:12:00;8.10;;;7.30;;
13743;SDS011;6943;52.368;9.966;2023-05-07T08:14:26;10.37;;;9.13;;
13743;SDS011;6943;52.368;9.966;2023-05-07T08:16:54;9.97;;;9.07;;
13743;SDS011;6943;52.368;9.966;2023-05-07T08:19:20;10.13;;;9.13;;
13743;SDS011;6943;52.368;9.966;2023-05-07T08:21:46;9.60;;;8.70;;
13743;SDS011;6943;52.368;9.966;2023-05-07T08:24:13;8.20;;;7.40;;
13743;SDS011;6943;52.368;9.966;2023-05-07T08:26:38;9.57;;;8.57;;
13743;SDS011;6943;52.368;9.966;2023-05-07T08:29:05;9.60;;;8.60;;
13743;SDS011;6943;52.368;9.966;2023-05-07T08:31:31;9.30;;;8.40;;
13743;SDS011;6943;52.368;9.966;2023-05-07T08:33:57;9.83;;;8.67;;
13743;SDS011;6943;52.368;9.966;2023-05-07T08:36:23;9.50;;;8.60;;
13743;SDS011;6943;52.368;9.966;2023-05-07T08:38:49;11.00;;;9.70;;
13743;SDS011;6943;52.368;9.966;2023-05-07T08:41:15;10.53;;;8.97;;
13743;SDS011;6943;52.368;9.966;2023-05-07T08:43:41;10.00;;;9.03;;
13743;SDS011;6943;52.368;9.966;2023-05-07T08:46:09;10.07;;;8.97;;
13743;SDS011;6943;52.368;9.966;2023-05-07T08:48:36;10.03;;;8.73;;
13743;SDS011;6943;52.368;9.966;2023-05-07T08:51:02;9.67;;;8.33;;
13743;SDS011;6943;52.368;9.966;2023-05-07T08:53:28;10.90;;;9.00;;
13743;SDS011;6943;52.368;9.966;2023-05-07T08:55:54;9.97;;;8.97;;
13743;SDS011;6943;52.368;9.966;2023-05-07T08:58:20;9.27;;;8.27;;
13743;SDS011;6943;52.368;9.966;2023-05-07T09:00:46;11.37;;;9.43;;
13743;SDS011;6943;52.368;9.966;2023-05-07T09:03:12;9.63;;;8.63;;
13743;SDS011;6943;52.368;9.966;2023-05-07T09:05:39;10.93;;;9.00;;
13743;SDS011;6943;52.368;9.966;2023-05-07T09:08:06;11.03;;;9.90;;
13743;SDS011;6943;52.368;9.966;2023-05-07T09:10:35;9.67;;;8.63;;
13743;SDS011;6943;52.368;9.966;2023-05-07T09:13:02;10.47;;;9.03;;
13743;SDS011;6943;52.368;9.966;2023-05-07T09:15:29;9.70;;;8.70;;
13743;SDS011;6943;52.368;9.966;2023-05-07T09:17:58;9.60;;;8.70;;
13743;SDS011;6943;52.368;9.966;2023-05-07T09:20:25;10.97;;;9.33;;
13743;SDS011;6943;52.368;9.966;2023-05-07T09:22:51;10.77;;;9.67;;
13743;SDS011;6943;52.368;9.966;2023-05-07T09:25:20;10.97;;;9.97;;
13743;SDS011;6943;52.368;9.966;2023-05-07T09:27:52;11.67;;;10.37;;
13743;SDS011;6943;52.368;9.966;2023-05-07T09:30:18;9.97;;;8.97;;
13743;SDS011;6943;52.368;9.966;2023-05-07T09:32:44;10.80;;;9.80;;
13743;SDS011;6943;52.368;9.966;2023-05-07T09:35:17;10.00;;;9.00;;
13743;SDS011;6943;52.368;9.966;2023-05-07T09:37:43;12.03;;;10.87;;
13743;SDS011;6943;52.368;9.966;2023-05-07T09:40:19;12.13;;;10.83;;
13743;SDS011;6943;52.368;9.966;2023-05-07T09:42:46;10.40;;;9.40;;
13743;SDS011;6943;52.368;9.966;2023-05-07T09:45:12;11.40;;;10.27;;
13743;SDS011;6943;52.368;9.966;2023-05-07T09:47:38;11.83;;;10.63;;
13743;SDS011;6943;52.368;9.966;2023-05-07T09:50:05;11.63;;;10.50;;
13743;SDS011;6943;52.368;9.966;2023-05-07T09:52:32;9.87;;;8.97;;
13743;SDS011;6943;52.368;9.966;2023-05-07T09:55:00;9.63;;;8.73;;
13743;SDS011;6943;52.368;9.966;2023-05-07T09:57:27;10.60;;;9.60;;
13743;SDS011;6943;52.368;9.966;2023-05-07T09:59:53;11.40;;;10.40;;
13743;SDS011;6943;52.368;9.966;2023-05-07T10:02:19;10.80;;;9.73;;
13743;SDS011;6943;52.368;9.966;2023-05-07T10:04:46;12.27;;;11.07;;
13743;SDS011;6943;52.368;9.966;2023-05-07T10:07:13;11.40;;;10.30;;
13743;SDS011;6943;52.368;9.966;2023-05-07T10:09:39;10.37;;;9.40;;
13743;SDS011;6943;52.368;9.966;2023-05-07T10:12:07;11.80;;;10.70;;
13743;SDS011;6943;52.368;9.966;2023-05-07T10:14:33;11.10;;;9.87;;
13743;SDS011;6943;52.368;9.966;2023-05-07T10:16:59;10.43;;;9.33;;
13743;SDS011;6943;52.368;9.966;2023-05-07T10:19:26;11.20;;;10.10;;
13743;SDS011;6943;52.368;9.966;2023-05-07T10:21:55;10.33;;;9.40;;
13743;SDS011;6943;52.368;9.966;2023-05-07T10:24:26;9.77;;;8.83;;
13743;SDS011;6943;52.368;9.966;2023-05-07T10:26:55;9.60;;;8.30;;
13743;SDS011;6943;52.368;9.966;2023-05-07T10:29:28;9.57;;;8.60;;
13743;SDS011;6943;52.368;9.966;2023-05-07T10:34:26;8.80;;;8.00;;
13743;SDS011;6943;52.368;9.966;2023-05-07T10:36:53;9.63;;;8.63;;
13743;SDS011;6943;52.368;9.966;2023-05-07T10:39:20;9.13;;;8.23;;
13743;SDS011;6943;52.368;9.966;2023-05-07T10:41:46;8.80;;;8.00;;
13743;SDS011;6943;52.368;9.966;2023-05-07T10:44:24;8.83;;;8.03;;
13743;SDS011;6943;52.368;9.966;2023-05-07T10:47:06;14.97;;;8.37;;
13743;SDS011;6943;52.368;9.966;2023-05-07T10:49:34;8.60;;;7.80;;
13743;SDS011;6943;52.368;9.966;2023-05-07T10:52:20;8.57;;;7.80;;
13743;SDS011;6943;52.368;9.966;2023-05-07T10:54:48;8.83;;;7.93;;
13743;SDS011;6943;52.368;9.966;2023-05-07T10:57:35;9.20;;;8.40;;
13743;SDS011;6943;52.368;9.966;2023-05-07T11:00:01;8.70;;;7.90;;
13743;SDS011;6943;52.368;9.966;2023-05-07T11:05:19;7.93;;;7.23;;
13743;SDS011;6943;52.368;9.966;2023-05-07T11:07:53;9.83;;;8.93;;
13743;SDS011;6943;52.368;9.966;2023-05-07T11:10:20;8.73;;;7.83;;
13743;SDS011;6943;52.368;9.966;2023-05-07T11:12:46;9.60;;;8.70;;
13743;SDS011;6943;52.368;9.966;2023-05-07T11:15:13;8.77;;;7.97;;
13743;SDS011;6943;52.368;9.966;2023-05-07T11:20:20;8.43;;;7.53;;
13743;SDS011;6943;52.368;9.966;2023-05-07T11:22:46;7.90;;;7.20;;
13743;SDS011;6943;52.368;9.966;2023-05-07T11:25:18;8.70;;;7.90;;
13743;SDS011;6943;52.368;9.966;2023-05-07T11:27:44;7.87;;;7.17;;
13743;SDS011;6943;52.368;9.966;2023-05-07T11:30:16;8.17;;;7.43;;
13743;SDS011;6943;52.368;9.966;2023-05-07T11:32:43;7.73;;;7.00;;
13743;SDS011;6943;52.368;9.966;2023-05-07T11:35:12;8.00;;;7.27;;
13743;SDS011;6943;52.368;9.966;2023-05-07T11:37:38;6.73;;;6.13;;
13743;SDS011;6943;52.368;9.966;2023-05-07T11:40:05;7.77;;;6.97;;
13743;SDS011;6943;52.368;9.966;2023-05-07T11:42:35;7.83;;;7.10;;
13743;SDS011;6943;52.368;9.966;2023-05-07T11:45:02;8.43;;;7.50;;
13743;SDS011;6943;52.368;9.966;2023-05-07T11:47:31;7.90;;;7.23;;
13743;SDS011;6943;52.368;9.966;2023-05-07T11:49:57;8.03;;;7.23;;
13743;SDS011;6943;52.368;9.966;2023-05-07T11:52:27;7.40;;;6.70;;
13743;SDS011;6943;52.368;9.966;2023-05-07T11:54:56;7.93;;;7.20;;
13743;SDS011;6943;52.368;9.966;2023-05-07T11:57:23;7.57;;;6.70;;
13743;SDS011;6943;52.368;9.966;2023-05-07T11:59:53;8.33;;;7.53;;
13743;SDS011;6943;52.368;9.966;2023-05-07T12:02:19;6.97;;;6.37;;
13743;SDS011;6943;52.368;9.966;2023-05-07T12:04:45;7.90;;;7.10;;
13743;SDS011;6943;52.368;9.966;2023-05-07T12:07:14;6.10;;;5.50;;
13743;SDS011;6943;52.368;9.966;2023-05-07T12:09:41;6.27;;;5.77;;
13743;SDS011;6943;52.368;9.966;2023-05-07T12:12:07;7.10;;;6.30;;
13743;SDS011;6943;52.368;9.966;2023-05-07T12:14:33;6.67;;;6.03;;
13743;SDS011;6943;52.368;9.966;2023-05-07T12:17:03;6.30;;;5.70;;
13743;SDS011;6943;52.368;9.966;2023-05-07T12:19:30;5.93;;;5.43;;
13743;SDS011;6943;52.368;9.966;2023-05-07T12:21:56;5.93;;;5.43;;
13743;SDS011;6943;52.368;9.966;2023-05-07T12:24:22;7.30;;;5.47;;
13743;SDS011;6943;52.368;9.966;2023-05-07T12:26:48;5.37;;;4.97;;
13743;SDS011;6943;52.368;9.966;2023-05-07T12:29:14;5.93;;;5.43;;
13743;SDS011;6943;52.368;9.966;2023-05-07T12:31:41;6.13;;;5.53;;
13743;SDS011;6943;52.368;9.966;2023-05-07T12:34:07;6.70;;;6.10;;
13743;SDS011;6943;52.368;9.966;2023-05-07T12:36:36;5.70;;;5.20;;
13743;SDS011;6943;52.368;9.966;2023-05-07T12:39:03;5.63;;;5.10;;
13743;SDS011;6943;52.368;9.966;2023-05-07T12:41:30;6.77;;;6.17;;
13743;SDS011;6943;52.368;9.966;2023-05-07T12:43:56;6.40;;;5.90;;
13743;SDS011;6943;52.368;9.966;2023-05-07T12:46:23;7.73;;;7.13;;
13743;SDS011;6943;52.368;9.966;2023-05-07T12:48:49;7.60;;;5.97;;
13743;SDS011;6943;52.368;9.966;2023-05-07T12:51:15;6.70;;;6.10;;
13743;SDS011;6943;52.368;9.966;2023-05-07T12:53:41;6.10;;;5.60;;
13743;SDS011;6943;52.368;9.966;2023-05-07T12:56:07;6.47;;;5.93;;
13743;SDS011;6943;52.368;9.966;2023-05-07T12:58:33;5.97;;;5.47;;
13743;SDS011;6943;52.368;9.966;2023-05-07T13:01:01;6.03;;;5.43;;
13743;SDS011;6943;52.368;9.966;2023-05-07T13:03:30;6.33;;;5.70;;
13743;SDS011;6943;52.368;9.966;2023-05-07T13:06:00;5.80;;;5.30;;
13743;SDS011;6943;52.368;9.966;2023-05-07T13:08:30;7.37;;;6.77;;
13743;SDS011;6943;52.368;9.966;2023-05-07T13:11:00;8.67;;;7.90;;
13743;SDS011;6943;52.368;9.966;2023-05-07T13:13:30;8.13;;;7.33;;
13743;SDS011;6943;52.368;9.966;2023-05-07T13:15:56;7.60;;;7.00;;
13743;SDS011;6943;52.368;9.966;2023-05-07T13:18:24;8.93;;;8.13;;
13743;SDS011;6943;52.368;9.966;2023-05-07T13:20:50;6.90;;;6.27;;
13743;SDS011;6943;52.368;9.966;2023-05-07T13:23:16;7.17;;;6.57;;
13743;SDS011;6943;52.368;9.966;2023-05-07T13:25:42;7.27;;;6.60;;
13743;SDS011;6943;52.368;9.966;2023-05-07T13:28:08;8.27;;;7.57;;
13743;SDS011;6943;52.368;9.966;2023-05-07T13:30:34;9.60;;;8.60;;
13743;SDS011;6943;52.368;9.966;2023-05-07T13:33:01;7.83;;;7.13;;
13743;SDS011;6943;52.368;9.966;2023-05-07T13:35:27;8.33;;;7.17;;
13743;SDS011;6943;52.368;9.966;2023-05-07T13:37:53;10.17;;;8.30;;
13743;SDS011;6943;52.368;9.966;2023-05-07T13:40:19;8.00;;;7.27;;
13743;SDS011;6943;52.368;9.966;2023-05-07T13:42:45;7.67;;;6.87;;
13743;SDS011;6943;52.368;9.966;2023-05-07T13:45:11;6.40;;;5.80;;
13743;SDS011;6943;52.368;9.966;2023-05-07T13:47:38;7.47;;;6.53;;
13743;SDS011;6943;52.368;9.966;2023-05-07T13:50:05;6.53;;;5.93;;
13743;SDS011;6943;52.368;9.966;2023-05-07T13:52:31;7.17;;;6.47;;
13743;SDS011;6943;52.368;9.966;2023-05-07T13:54:57;7.60;;;6.90;;
13743;SDS011;6943;52.368;9.966;2023-05-07T13:57:23;7.37;;;6.67;;
13743;SDS011;6943;52.368;9.966;2023-05-07T13:59:49;7.43;;;6.73;;
13743;SDS011;6943;52.368;9.966;2023-05-07T14:02:15;7.93;;;7.07;;
13743;SDS011;6943;52.368;9.966;2023-05-07T14:04:41;7.03;;;6.33;;
13743;SDS011;6943;52.368;9.966;2023-05-07T14:07:07;6.33;;;5.70;;
13743;SDS011;6943;52.368;9.966;2023-05-07T14:09:33;7.53;;;6.67;;
13743;SDS011;6943;52.368;9.966;2023-05-07T14:11:59;8.07;;;7.27;;
13743;SDS011;6943;52.368;9.966;2023-05-07T14:14:26;7.90;;;6.83;;
13743;SDS011;6943;52.368;9.966;2023-05-07T14:16:52;7.80;;;7.10;;
13743;SDS011;6943;52.368;9.966;2023-05-07T14:19:18;7.53;;;6.83;;
13743;SDS011;6943;52.368;9.966;2023-05-07T14:21:44;7.40;;;6.53;;
13743;SDS011;6943;52.368;9.966;2023-05-07T14:24:10;10.20;;;7.67;;
13743;SDS011;6943;52.368;9.966;2023-05-07T14:26:36;7.77;;;7.07;;
13743;SDS011;6943;52.368;9.966;2023-05-07T14:29:02;8.10;;;7.17;;
13743;SDS011;6943;52.368;9.966;2023-05-07T14:31:28;6.87;;;6.20;;
13743;SDS011;6943;52.368;9.966;2023-05-07T14:33:54;7.70;;;6.93;;
13743;SDS011;6943;52.368;9.966;2023-05-07T14:36:22;7.43;;;6.73;;
13743;SDS011;6943;52.368;9.966;2023-05-07T14:38:50;7.23;;;6.47;;
13743;SDS011;6943;52.368;9.966;2023-05-07T14:41:16;6.70;;;6.10;;
13743;SDS011;6943;52.368;9.966;2023-05-07T14:43:42;7.60;;;6.70;;
13743;SDS011;6943;52.368;9.966;2023-05-07T14:46:14;8.27;;;7.10;;
13743;SDS011;6943;52.368;9.966;2023-05-07T14:48:40;7.97;;;7.17;;
13743;SDS011;6943;52.368;9.966;2023-05-07T14:51:06;7.33;;;6.73;;
13743;SDS011;6943;52.368;9.966;2023-05-07T14:53:32;7.17;;;6.47;;
13743;SDS011;6943;52.368;9.966;2023-05-07T14:55:58;7.47;;;6.77;;